sensor_id;sensor_type;location;lat;lon;timestamp;pressure;altitude;pressure_sealevel;temperature;humidity
46241;BME280;31961;52.416;-0.732;2023-02-27T00:01:20;102333.44;;;-0.63;100.00
46241;BME280;31961;52.416;-0.732;2023-02-27T00:03:47;102333.16;;;-0.18;100.00
46241;BME280;31961;52.416;-0.732;2023-02-27T00:06:15;102335.14;;;0.47;100.00
46241;BME280;31961;52.416;-0.732;2023-02-27T00:08:42;102335.91;;;-0.09;100.00
46241;BME280;31961;52.416;-0.732;2023-02-27T00:11:08;102338.28;;;0.28;100.00
46241;BME280;31961;52.416;-0.732;2023-02-27T00:13:35;102338.71;;;0.52;100.00
46241;BME280;31961;52.416;-0.732;2023-02-27T00:16:02;102337.19;;;0.96;100.00
46241;BME280;31961;52.416;-0.732;2023-02-27T00:18:30;102346.04;;;0.56;100.00
46241;BME280;31961;52.416;-0.732;2023-02-27T00:20:57;102347.47;;;0.27;100.00
46241;BME280;31961;52.416;-0.732;2023-02-27T00:23:24;102347.24;;;0.41;100.00
46241;BME280;31961;52.416;-0.732;2023-02-27T00:25:51;102353.48;;;-0.39;100.00
46241;BME280;31961;52.416;-0.732;2023-02-27T00:28:18;102352.22;;;0.48;100.00
46241;BME280;31961;52.416;-0.732;2023-02-27T00:30:45;102350.13;;;0.44;100.00
46241;BME280;31961;52.416;-0.732;2023-02-27T00:33:11;102347.05;;;0.74;100.00
46241;BME280;31961;52.416;-0.732;2023-02-27T00:35:39;102346.32;;;0.54;100.00
46241;BME280;31961;52.416;-0.732;2023-02-27T00:38:06;102344.29;;;0.43;100.00
46241;BME280;31961;52.416;-0.732;2023-02-27T00:40:34;102343.94;;;1.09;100.00
46241;BME280;31961;52.416;-0.732;2023-02-27T00:43:01;102337.77;;;1.08;100.00
46241;BME280;31961;52.416;-0.732;2023-02-27T00:45:28;102342.75;;;1.47;100.00
46241;BME280;31961;52.416;-0.732;2023-02-27T00:47:55;102341.06;;;2.23;100.00
46241;BME280;31961;52.416;-0.732;2023-02-27T00:50:22;102345.37;;;2.14;100.00
46241;BME280;31961;52.416;-0.732;2023-02-27T00:52:49;102346.77;;;2.03;100.00
46241;BME280;31961;52.416;-0.732;2023-02-27T00:55:16;102352.38;;;2.37;100.00
46241;BME280;31961;52.416;-0.732;2023-02-27T00:57:43;102343.46;;;2.03;100.00
46241;BME280;31961;52.416;-0.732;2023-02-27T01:00:11;102345.08;;;1.70;100.00
46241;BME280;31961;52.416;-0.732;2023-02-27T01:02:38;102347.31;;;1.44;100.00
46241;BME280;31961;52.416;-0.732;2023-02-27T01:05:06;102350.71;;;0.27;100.00
46241;BME280;31961;52.416;-0.732;2023-02-27T01:07:33;102351.29;;;1.27;100.00
46241;BME280;31961;52.416;-0.732;2023-02-27T01:10:00;102350.40;;;2.10;100.00
46241;BME280;31961;52.416;-0.732;2023-02-27T01:12:27;102350.86;;;2.19;100.00
46241;BME280;31961;52.416;-0.732;2023-02-27T01:14:54;102354.82;;;2.31;100.00
46241;BME280;31961;52.416;-0.732;2023-02-27T01:17:22;102365.28;;;2.82;100.00
46241;BME280;31961;52.416;-0.732;2023-02-27T01:19:49;102362.92;;;1.74;100.00
46241;BME280;31961;52.416;-0.732;2023-02-27T01:22:16;102357.45;;;2.19;100.00
46241;BME280;31961;52.416;-0.732;2023-02-27T01:24:44;102363.80;;;2.24;100.00
46241;BME280;31961;52.416;-0.732;2023-02-27T01:27:10;102355.39;;;1.97;100.00
46241;BME280;31961;52.416;-0.732;2023-02-27T01:29:37;102349.86;;;1.76;100.00
46241;BME280;31961;52.416;-0.732;2023-02-27T01:32:05;102353.27;;;1.90;100.00
46241;BME280;31961;52.416;-0.732;2023-02-27T01:34:33;102350.79;;;1.62;100.00
46241;BME280;31961;52.416;-0.732;2023-02-27T01:37:00;102350.21;;;3.08;100.00
46241;BME280;31961;52.416;-0.732;2023-02-27T01:39:28;102340.82;;;3.28;100.00
46241;BME280;31961;52.416;-0.732;2023-02-27T01:41:54;102345.72;;;3.35;100.00
46241;BME280;31961;52.416;-0.732;2023-02-27T01:44:26;102344.30;;;3.28;100.00
46241;BME280;31961;52.416;-0.732;2023-02-27T01:46:54;102345.51;;;2.27;100.00
46241;BME280;31961;52.416;-0.732;2023-02-27T01:49:24;102339.84;;;2.61;100.00
46241;BME280;31961;52.416;-0.732;2023-02-27T01:51:55;102340.83;;;2.70;100.00
46241;BME280;31961;52.416;-0.732;2023-02-27T01:54:24;102341.53;;;3.37;100.00
46241;BME280;31961;52.416;-0.732;2023-02-27T01:56:52;102341.76;;;2.82;100.00
46241;BME280;31961;52.416;-0.732;2023-02-27T01:59:20;102339.70;;;3.01;100.00
46241;BME280;31961;52.416;-0.732;2023-02-27T02:01:48;102338.31;;;2.77;100.00
46241;BME280;31961;52.416;-0.732;2023-02-27T02:04:21;102342.93;;;2.31;100.00
46241;BME280;31961;52.416;-0.732;2023-02-27T02:06:54;102337.57;;;2.07;100.00
46241;BME280;31961;52.416;-0.732;2023-02-27T02:09:23;102334.42;;;1.88;100.00
46241;BME280;31961;52.416;-0.732;2023-02-27T02:11:52;102323.22;;;1.39;100.00
46241;BME280;31961;52.416;-0.732;2023-02-27T02:14:20;102324.75;;;1.27;100.00
46241;BME280;31961;52.416;-0.732;2023-02-27T02:17:01;102323.94;;;1.10;100.00
46241;BME280;31961;52.416;-0.732;2023-02-27T02:19:52;102329.18;;;1.61;100.00
46241;BME280;31961;52.416;-0.732;2023-02-27T02:22:51;102323.64;;;1.92;100.00
46241;BME280;31961;52.416;-0.732;2023-02-27T02:26:02;102324.94;;;2.12;100.00
46241;BME280;31961;52.416;-0.732;2023-02-27T02:28:54;102331.59;;;2.06;100.00
46241;BME280;31961;52.416;-0.732;2023-02-27T02:31:53;102332.95;;;2.55;100.00
46241;BME280;31961;52.416;-0.732;2023-02-27T02:35:00;102327.00;;;1.70;100.00
46241;BME280;31961;52.416;-0.732;2023-02-27T02:38:26;102328.54;;;1.48;100.00
46241;BME280;31961;52.416;-0.732;2023-02-27T02:41:04;102324.33;;;1.20;100.00
46241;BME280;31961;52.416;-0.732;2023-02-27T02:43:39;102320.35;;;0.84;100.00
46241;BME280;31961;52.416;-0.732;2023-02-27T02:46:13;102321.78;;;0.83;100.00
46241;BME280;31961;52.416;-0.732;2023-02-27T02:48:46;102324.91;;;2.15;100.00
46241;BME280;31961;52.416;-0.732;2023-02-27T02:51:21;102321.99;;;1.49;100.00
46241;BME280;31961;52.416;-0.732;2023-02-27T02:53:56;102323.15;;;1.21;100.00
46241;BME280;31961;52.416;-0.732;2023-02-27T02:56:30;102326.46;;;0.84;100.00
46241;BME280;31961;52.416;-0.732;2023-02-27T02:59:03;102319.96;;;0.71;100.00
46241;BME280;31961;52.416;-0.732;2023-02-27T03:01:37;102323.62;;;0.09;100.00
46241;BME280;31961;52.416;-0.732;2023-02-27T03:04:09;102329.40;;;-0.15;100.00
46241;BME280;31961;52.416;-0.732;2023-02-27T03:06:42;102326.47;;;0.01;100.00
46241;BME280;31961;52.416;-0.732;2023-02-27T03:09:17;102331.18;;;-0.37;100.00
46241;BME280;31961;52.416;-0.732;2023-02-27T03:11:49;102328.09;;;-0.36;100.00
46241;BME280;31961;52.416;-0.732;2023-02-27T03:14:21;102324.31;;;-0.53;100.00
46241;BME280;31961;52.416;-0.732;2023-02-27T03:16:53;102315.07;;;0.22;100.00
46241;BME280;31961;52.416;-0.732;2023-02-27T03:19:23;102312.39;;;0.10;100.00
46241;BME280;31961;52.416;-0.732;2023-02-27T03:21:55;102315.69;;;0.14;100.00
46241;BME280;31961;52.416;-0.732;2023-02-27T03:24:29;102315.15;;;0.09;100.00
46241;BME280;31961;52.416;-0.732;2023-02-27T03:26:58;102315.04;;;-0.05;100.00
46241;BME280;31961;52.416;-0.732;2023-02-27T03:29:30;102315.24;;;0.26;100.00
46241;BME280;31961;52.416;-0.732;2023-02-27T03:32:02;102318.71;;;0.07;100.00
46241;BME280;31961;52.416;-0.732;2023-02-27T03:34:33;102319.58;;;-0.18;100.00
46241;BME280;31961;52.416;-0.732;2023-02-27T03:37:05;102321.86;;;0.09;100.00
46241;BME280;31961;52.416;-0.732;2023-02-27T03:39:47;102313.83;;;0.38;100.00
46241;BME280;31961;52.416;-0.732;2023-02-27T03:42:21;102309.91;;;0.92;100.00
46241;BME280;31961;52.416;-0.732;2023-02-27T03:45:12;102316.18;;;-0.06;100.00
46241;BME280;31961;52.416;-0.732;2023-02-27T03:47:42;102315.23;;;0.18;100.00
46241;BME280;31961;52.416;-0.732;2023-02-27T03:50:10;102315.72;;;0.20;100.00
46241;BME280;31961;52.416;-0.732;2023-02-27T03:52:38;102317.11;;;0.14;100.00
46241;BME280;31961;52.416;-0.732;2023-02-27T03:55:10;102309.76;;;0.92;100.00
46241;BME280;31961;52.416;-0.732;2023-02-27T03:57:40;102305.90;;;1.04;100.00
46241;BME280;31961;52.416;-0.732;2023-02-27T04:00:12;102308.02;;;2.04;100.00
46241;BME280;31961;52.416;-0.732;2023-02-27T04:02:40;102309.06;;;1.89;100.00
46241;BME280;31961;52.416;-0.732;2023-02-27T04:05:09;102313.87;;;1.36;100.00
46241;BME280;31961;52.416;-0.732;2023-02-27T04:07:42;102312.44;;;1.12;100.00
46241;BME280;31961;52.416;-0.732;2023-02-27T04:10:22;102306.96;;;1.24;100.00
46241;BME280;31961;52.416;-0.732;2023-02-27T04:13:20;102301.47;;;1.17;100.00
46241;BME280;31961;52.416;-0.732;2023-02-27T04:16:12;102294.06;;;0.86;100.00
46241;BME280;31961;52.416;-0.732;2023-02-27T04:18:57;102297.84;;;1.14;100.00
46241;BME280;31961;52.416;-0.732;2023-02-27T04:21:33;102305.08;;;1.39;100.00
46241;BME280;31961;52.416;-0.732;2023-02-27T04:24:09;102306.23;;;1.02;100.00
46241;BME280;31961;52.416;-0.732;2023-02-27T04:26:42;102305.21;;;0.81;100.00
46241;BME280;31961;52.416;-0.732;2023-02-27T04:29:16;102305.26;;;1.71;100.00
46241;BME280;31961;52.416;-0.732;2023-02-27T04:31:49;102307.61;;;1.04;100.00
46241;BME280;31961;52.416;-0.732;2023-02-27T04:34:25;102304.60;;;1.20;100.00
46241;BME280;31961;52.416;-0.732;2023-02-27T04:37:00;102302.11;;;0.31;100.00
46241;BME280;31961;52.416;-0.732;2023-02-27T04:39:32;102304.89;;;1.30;100.00
46241;BME280;31961;52.416;-0.732;2023-02-27T04:42:02;102308.34;;;1.06;100.00
46241;BME280;31961;52.416;-0.732;2023-02-27T04:44:35;102317.87;;;0.99;100.00
46241;BME280;31961;52.416;-0.732;2023-02-27T04:47:06;102315.74;;;0.64;100.00
46241;BME280;31961;52.416;-0.732;2023-02-27T04:49:38;102318.10;;;1.43;100.00
46241;BME280;31961;52.416;-0.732;2023-02-27T04:52:11;102322.05;;;1.57;100.00
46241;BME280;31961;52.416;-0.732;2023-02-27T04:54:42;102321.53;;;1.57;100.00
46241;BME280;31961;52.416;-0.732;2023-02-27T04:57:15;102318.63;;;1.89;100.00
46241;BME280;31961;52.416;-0.732;2023-02-27T04:59:50;102314.94;;;1.82;100.00
46241;BME280;31961;52.416;-0.732;2023-02-27T05:02:22;102315.88;;;1.24;100.00
46241;BME280;31961;52.416;-0.732;2023-02-27T05:04:52;102318.51;;;2.09;100.00
46241;BME280;31961;52.416;-0.732;2023-02-27T05:07:27;102319.77;;;1.55;100.00
46241;BME280;31961;52.416;-0.732;2023-02-27T05:09:58;102321.92;;;1.30;100.00
46241;BME280;31961;52.416;-0.732;2023-02-27T05:12:32;102316.20;;;1.35;100.00
46241;BME280;31961;52.416;-0.732;2023-02-27T05:15:04;102312.61;;;1.30;100.00
46241;BME280;31961;52.416;-0.732;2023-02-27T05:17:36;102315.55;;;1.25;100.00
46241;BME280;31961;52.416;-0.732;2023-02-27T05:20:05;102320.06;;;1.63;100.00
46241;BME280;31961;52.416;-0.732;2023-02-27T05:22:38;102315.46;;;1.18;100.00
46241;BME280;31961;52.416;-0.732;2023-02-27T05:25:12;102321.92;;;1.27;100.00
46241;BME280;31961;52.416;-0.732;2023-02-27T05:27:46;102318.34;;;1.70;100.00
46241;BME280;31961;52.416;-0.732;2023-02-27T05:30:20;102313.71;;;1.44;100.00
46241;BME280;31961;52.416;-0.732;2023-02-27T05:32:53;102316.77;;;1.53;100.00
46241;BME280;31961;52.416;-0.732;2023-02-27T05:35:27;102317.11;;;1.09;100.00
46241;BME280;31961;52.416;-0.732;2023-02-27T05:38:01;102324.28;;;1.70;100.00
46241;BME280;31961;52.416;-0.732;2023-02-27T05:40:34;102324.53;;;1.36;100.00
46241;BME280;31961;52.416;-0.732;2023-02-27T05:43:06;102323.75;;;1.19;100.00
46241;BME280;31961;52.416;-0.732;2023-02-27T05:45:37;102325.89;;;0.77;100.00
46241;BME280;31961;52.416;-0.732;2023-02-27T05:48:08;102327.87;;;1.18;100.00
46241;BME280;31961;52.416;-0.732;2023-02-27T05:50:39;102327.56;;;0.94;100.00
46241;BME280;31961;52.416;-0.732;2023-02-27T05:53:12;102325.74;;;1.60;100.00
46241;BME280;31961;52.416;-0.732;2023-02-27T05:55:43;102322.57;;;1.57;100.00
46241;BME280;31961;52.416;-0.732;2023-02-27T05:58:17;102322.33;;;0.60;100.00
46241;BME280;31961;52.416;-0.732;2023-02-27T06:00:48;102319.12;;;1.18;100.00
46241;BME280;31961;52.416;-0.732;2023-02-27T06:03:17;102320.81;;;2.12;100.00
46241;BME280;31961;52.416;-0.732;2023-02-27T06:05:45;102323.14;;;2.06;100.00
46241;BME280;31961;52.416;-0.732;2023-02-27T06:08:13;102323.43;;;2.19;100.00
46241;BME280;31961;52.416;-0.732;2023-02-27T06:10:40;102323.09;;;2.01;100.00
46241;BME280;31961;52.416;-0.732;2023-02-27T06:13:07;102324.16;;;2.12;100.00
46241;BME280;31961;52.416;-0.732;2023-02-27T06:15:35;102330.17;;;1.89;100.00
46241;BME280;31961;52.416;-0.732;2023-02-27T06:18:02;102327.58;;;1.45;100.00
46241;BME280;31961;52.416;-0.732;2023-02-27T06:20:30;102324.39;;;1.46;100.00
46241;BME280;31961;52.416;-0.732;2023-02-27T06:22:57;102326.80;;;1.93;100.00
46241;BME280;31961;52.416;-0.732;2023-02-27T06:25:25;102329.03;;;1.83;100.00
46241;BME280;31961;52.416;-0.732;2023-02-27T06:27:52;102332.62;;;2.06;100.00
46241;BME280;31961;52.416;-0.732;2023-02-27T06:30:20;102329.21;;;1.12;100.00
46241;BME280;31961;52.416;-0.732;2023-02-27T06:32:48;102331.27;;;1.85;100.00
46241;BME280;31961;52.416;-0.732;2023-02-27T06:35:15;102330.10;;;2.23;100.00
46241;BME280;31961;52.416;-0.732;2023-02-27T06:37:43;102331.14;;;1.71;100.00
46241;BME280;31961;52.416;-0.732;2023-02-27T06:40:11;102336.85;;;1.82;100.00
46241;BME280;31961;52.416;-0.732;2023-02-27T06:42:38;102337.01;;;1.60;100.00
46241;BME280;31961;52.416;-0.732;2023-02-27T06:45:07;102337.30;;;1.16;100.00
46241;BME280;31961;52.416;-0.732;2023-02-27T06:47:35;102332.93;;;1.14;100.00
46241;BME280;31961;52.416;-0.732;2023-02-27T06:50:03;102335.54;;;1.43;100.00
46241;BME280;31961;52.416;-0.732;2023-02-27T06:52:31;102339.44;;;1.39;100.00
46241;BME280;31961;52.416;-0.732;2023-02-27T06:54:58;102342.58;;;1.62;100.00
46241;BME280;31961;52.416;-0.732;2023-02-27T06:57:26;102344.44;;;0.95;100.00
46241;BME280;31961;52.416;-0.732;2023-02-27T06:59:53;102349.57;;;1.79;100.00
46241;BME280;31961;52.416;-0.732;2023-02-27T07:02:20;102343.78;;;2.07;100.00
46241;BME280;31961;52.416;-0.732;2023-02-27T07:04:48;102350.36;;;2.18;100.00
46241;BME280;31961;52.416;-0.732;2023-02-27T07:07:15;102352.77;;;1.96;100.00
46241;BME280;31961;52.416;-0.732;2023-02-27T07:09:42;102355.01;;;1.74;100.00
46241;BME280;31961;52.416;-0.732;2023-02-27T07:12:09;102357.55;;;1.88;100.00
46241;BME280;31961;52.416;-0.732;2023-02-27T07:14:37;102359.75;;;2.07;100.00
46241;BME280;31961;52.416;-0.732;2023-02-27T07:17:04;102360.52;;;1.67;100.00
46241;BME280;31961;52.416;-0.732;2023-02-27T07:19:32;102363.34;;;1.89;100.00
46241;BME280;31961;52.416;-0.732;2023-02-27T07:21:59;102364.39;;;1.17;100.00
46241;BME280;31961;52.416;-0.732;2023-02-27T07:24:27;102366.75;;;1.30;100.00
46241;BME280;31961;52.416;-0.732;2023-02-27T07:26:54;102366.49;;;1.43;100.00
46241;BME280;31961;52.416;-0.732;2023-02-27T07:29:22;102369.93;;;1.78;100.00
46241;BME280;31961;52.416;-0.732;2023-02-27T07:31:49;102375.33;;;1.17;100.00
46241;BME280;31961;52.416;-0.732;2023-02-27T07:34:16;102375.46;;;1.08;100.00
46241;BME280;31961;52.416;-0.732;2023-02-27T07:36:44;102381.61;;;1.21;100.00
46241;BME280;31961;52.416;-0.732;2023-02-27T07:39:12;102386.03;;;1.22;100.00
46241;BME280;31961;52.416;-0.732;2023-02-27T07:41:39;102386.30;;;1.54;100.00
46241;BME280;31961;52.416;-0.732;2023-02-27T07:44:06;102386.12;;;2.06;100.00
46241;BME280;31961;52.416;-0.732;2023-02-27T07:46:34;102386.80;;;2.04;100.00
46241;BME280;31961;52.416;-0.732;2023-02-27T07:49:01;102389.60;;;1.63;100.00
46241;BME280;31961;52.416;-0.732;2023-02-27T07:51:29;102390.74;;;1.58;100.00
46241;BME280;31961;52.416;-0.732;2023-02-27T07:53:57;102387.28;;;2.28;100.00
46241;BME280;31961;52.416;-0.732;2023-02-27T07:56:25;102387.51;;;1.45;100.00
46241;BME280;31961;52.416;-0.732;2023-02-27T07:58:52;102387.07;;;1.85;100.00
46241;BME280;31961;52.416;-0.732;2023-02-27T08:01:19;102390.80;;;1.91;100.00
46241;BME280;31961;52.416;-0.732;2023-02-27T08:03:46;102390.24;;;2.58;100.00
46241;BME280;31961;52.416;-0.732;2023-02-27T08:06:13;102393.60;;;1.58;100.00
46241;BME280;31961;52.416;-0.732;2023-02-27T08:08:41;102398.19;;;2.05;100.00
46241;BME280;31961;52.416;-0.732;2023-02-27T08:11:09;102399.77;;;2.48;100.00
46241;BME280;31961;52.416;-0.732;2023-02-27T08:13:36;102404.00;;;2.10;100.00
46241;BME280;31961;52.416;-0.732;2023-02-27T08:16:05;102405.57;;;2.42;100.00
46241;BME280;31961;52.416;-0.732;2023-02-27T08:18:32;102408.00;;;1.80;100.00
46241;BME280;31961;52.416;-0.732;2023-02-27T08:21:00;102417.02;;;1.62;100.00
46241;BME280;31961;52.416;-0.732;2023-02-27T08:23:27;102412.02;;;1.93;100.00
46241;BME280;31961;52.416;-0.732;2023-02-27T08:25:54;102416.91;;;1.56;100.00
46241;BME280;31961;52.416;-0.732;2023-02-27T08:28:21;102413.31;;;1.71;100.00
46241;BME280;31961;52.416;-0.732;2023-02-27T08:30:48;102415.12;;;1.27;100.00
46241;BME280;31961;52.416;-0.732;2023-02-27T08:33:16;102413.73;;;1.62;100.00
46241;BME280;31961;52.416;-0.732;2023-02-27T08:35:44;102411.16;;;1.66;100.00
46241;BME280;31961;52.416;-0.732;2023-02-27T08:38:11;102405.29;;;2.51;100.00
46241;BME280;31961;52.416;-0.732;2023-02-27T08:40:39;102406.32;;;1.77;100.00
46241;BME280;31961;52.416;-0.732;2023-02-27T08:43:06;102406.91;;;2.18;100.00
46241;BME280;31961;52.416;-0.732;2023-02-27T08:45:34;102410.00;;;1.49;100.00
46241;BME280;31961;52.416;-0.732;2023-02-27T08:48:01;102408.33;;;2.06;100.00
46241;BME280;31961;52.416;-0.732;2023-02-27T08:50:29;102408.95;;;1.96;100.00
46241;BME280;31961;52.416;-0.732;2023-02-27T08:52:57;102410.45;;;2.00;100.00
46241;BME280;31961;52.416;-0.732;2023-02-27T08:55:24;102406.33;;;2.01;100.00
46241;BME280;31961;52.416;-0.732;2023-02-27T08:57:52;102409.50;;;2.36;100.00
46241;BME280;31961;52.416;-0.732;2023-02-27T09:00:21;102410.41;;;1.83;100.00
46241;BME280;31961;52.416;-0.732;2023-02-27T09:02:48;102413.56;;;2.13;100.00
46241;BME280;31961;52.416;-0.732;2023-02-27T09:05:16;102419.10;;;2.58;100.00
46241;BME280;31961;52.416;-0.732;2023-02-27T09:07:43;102415.99;;;2.42;100.00
46241;BME280;31961;52.416;-0.732;2023-02-27T09:10:11;102415.50;;;2.57;100.00
46241;BME280;31961;52.416;-0.732;2023-02-27T09:12:38;102418.43;;;1.83;100.00
46241;BME280;31961;52.416;-0.732;2023-02-27T09:15:06;102422.81;;;2.38;100.00
46241;BME280;31961;52.416;-0.732;2023-02-27T09:17:34;102423.67;;;2.13;100.00
46241;BME280;31961;52.416;-0.732;2023-02-27T09:20:01;102419.73;;;3.33;100.00
46241;BME280;31961;52.416;-0.732;2023-02-27T09:22:29;102425.75;;;3.07;100.00
46241;BME280;31961;52.416;-0.732;2023-02-27T09:24:56;102434.02;;;3.34;100.00
46241;BME280;31961;52.416;-0.732;2023-02-27T09:27:24;102435.26;;;2.43;100.00
46241;BME280;31961;52.416;-0.732;2023-02-27T09:29:52;102432.97;;;3.04;100.00
46241;BME280;31961;52.416;-0.732;2023-02-27T09:32:19;102424.57;;;3.77;100.00
46241;BME280;31961;52.416;-0.732;2023-02-27T09:34:47;102431.15;;;3.53;100.00
46241;BME280;31961;52.416;-0.732;2023-02-27T09:37:16;102427.69;;;4.27;100.00
46241;BME280;31961;52.416;-0.732;2023-02-27T09:39:43;102435.27;;;3.34;100.00
46241;BME280;31961;52.416;-0.732;2023-02-27T09:42:14;102437.21;;;3.13;100.00
46241;BME280;31961;52.416;-0.732;2023-02-27T09:44:45;102424.79;;;3.60;100.00
46241;BME280;31961;52.416;-0.732;2023-02-27T09:47:18;102427.34;;;3.77;100.00
46241;BME280;31961;52.416;-0.732;2023-02-27T09:49:54;102428.46;;;3.60;100.00
46241;BME280;31961;52.416;-0.732;2023-02-27T09:52:23;102430.09;;;3.97;100.00
46241;BME280;31961;52.416;-0.732;2023-02-27T09:54:51;102432.42;;;3.19;100.00
46241;BME280;31961;52.416;-0.732;2023-02-27T09:57:26;102425.69;;;3.85;100.00
46241;BME280;31961;52.416;-0.732;2023-02-27T10:00:01;102437.33;;;2.91;100.00
46241;BME280;31961;52.416;-0.732;2023-02-27T10:02:41;102429.77;;;3.55;100.00
46241;BME280;31961;52.416;-0.732;2023-02-27T10:05:18;102430.81;;;3.11;100.00
46241;BME280;31961;52.416;-0.732;2023-02-27T10:07:54;102425.72;;;4.23;100.00
46241;BME280;31961;52.416;-0.732;2023-02-27T10:10:29;102426.18;;;4.30;100.00
46241;BME280;31961;52.416;-0.732;2023-02-27T10:13:15;102430.15;;;4.13;100.00
46241;BME280;31961;52.416;-0.732;2023-02-27T10:15:48;102435.01;;;4.74;100.00
46241;BME280;31961;52.416;-0.732;2023-02-27T10:18:19;102433.59;;;4.43;100.00
46241;BME280;31961;52.416;-0.732;2023-02-27T10:20:51;102431.26;;;3.93;100.00
46241;BME280;31961;52.416;-0.732;2023-02-27T10:23:24;102427.05;;;4.59;100.00
46241;BME280;31961;52.416;-0.732;2023-02-27T10:25:54;102426.32;;;3.95;100.00
46241;BME280;31961;52.416;-0.732;2023-02-27T10:28:21;102430.07;;;3.57;100.00
46241;BME280;31961;52.416;-0.732;2023-02-27T10:30:51;102425.54;;;4.04;100.00
46241;BME280;31961;52.416;-0.732;2023-02-27T10:33:24;102423.70;;;3.86;100.00
46241;BME280;31961;52.416;-0.732;2023-02-27T10:35:52;102427.31;;;3.75;100.00
46241;BME280;31961;52.416;-0.732;2023-02-27T10:38:27;102434.23;;;3.56;100.00
46241;BME280;31961;52.416;-0.732;2023-02-27T10:40:57;102431.87;;;3.81;100.00
46241;BME280;31961;52.416;-0.732;2023-02-27T10:43:25;102435.16;;;3.49;100.00
46241;BME280;31961;52.416;-0.732;2023-02-27T10:45:53;102431.99;;;3.21;100.00
46241;BME280;31961;52.416;-0.732;2023-02-27T10:48:21;102434.99;;;4.74;100.00
46241;BME280;31961;52.416;-0.732;2023-02-27T10:50:49;102434.30;;;4.48;100.00
46241;BME280;31961;52.416;-0.732;2023-02-27T10:53:19;102436.84;;;4.53;100.00
46241;BME280;31961;52.416;-0.732;2023-02-27T10:55:57;102440.86;;;4.32;100.00
46241;BME280;31961;52.416;-0.732;2023-02-27T10:58:29;102451.88;;;4.49;100.00
46241;BME280;31961;52.416;-0.732;2023-02-27T11:00:58;102455.17;;;3.17;100.00
46241;BME280;31961;52.416;-0.732;2023-02-27T11:03:27;102448.03;;;4.33;100.00
46241;BME280;31961;52.416;-0.732;2023-02-27T11:05:58;102451.29;;;4.11;100.00
46241;BME280;31961;52.416;-0.732;2023-02-27T11:08:27;102451.01;;;4.63;100.00
46241;BME280;31961;52.416;-0.732;2023-02-27T11:10:58;102444.31;;;4.18;100.00
46241;BME280;31961;52.416;-0.732;2023-02-27T11:13:29;102441.89;;;4.50;100.00
46241;BME280;31961;52.416;-0.732;2023-02-27T11:16:04;102443.45;;;4.93;100.00
46241;BME280;31961;52.416;-0.732;2023-02-27T11:18:34;102443.20;;;4.75;100.00
46241;BME280;31961;52.416;-0.732;2023-02-27T11:21:20;102442.23;;;4.47;100.00
46241;BME280;31961;52.416;-0.732;2023-02-27T11:23:57;102441.84;;;4.82;100.00
46241;BME280;31961;52.416;-0.732;2023-02-27T11:26:28;102444.04;;;4.96;100.00
46241;BME280;31961;52.416;-0.732;2023-02-27T11:29:06;102445.97;;;4.90;100.00
46241;BME280;31961;52.416;-0.732;2023-02-27T11:31:35;102446.66;;;4.70;100.00
46241;BME280;31961;52.416;-0.732;2023-02-27T11:34:03;102442.31;;;5.60;100.00
46241;BME280;31961;52.416;-0.732;2023-02-27T11:36:41;102446.11;;;5.31;100.00
46241;BME280;31961;52.416;-0.732;2023-02-27T11:39:21;102434.30;;;6.12;100.00
46241;BME280;31961;52.416;-0.732;2023-02-27T11:41:50;102430.68;;;5.31;100.00
46241;BME280;31961;52.416;-0.732;2023-02-27T11:44:20;102430.04;;;5.59;100.00
46241;BME280;31961;52.416;-0.732;2023-02-27T11:46:51;102432.95;;;6.11;100.00
46241;BME280;31961;52.416;-0.732;2023-02-27T11:49:28;102429.62;;;6.45;100.00
46241;BME280;31961;52.416;-0.732;2023-02-27T11:52:02;102428.94;;;5.92;100.00
46241;BME280;31961;52.416;-0.732;2023-02-27T11:54:38;102425.27;;;5.76;100.00
46241;BME280;31961;52.416;-0.732;2023-02-27T11:57:16;102428.06;;;5.61;100.00
46241;BME280;31961;52.416;-0.732;2023-02-27T11:59:49;102427.01;;;5.43;100.00
46241;BME280;31961;52.416;-0.732;2023-02-27T12:02:23;102426.82;;;4.48;100.00
46241;BME280;31961;52.416;-0.732;2023-02-27T12:04:55;102425.54;;;5.15;100.00
46241;BME280;31961;52.416;-0.732;2023-02-27T12:07:26;102419.33;;;5.40;100.00
46241;BME280;31961;52.416;-0.732;2023-02-27T12:10:00;102417.24;;;5.46;100.00
46241;BME280;31961;52.416;-0.732;2023-02-27T12:12:34;102415.42;;;5.01;100.00
46241;BME280;31961;52.416;-0.732;2023-02-27T12:15:14;102416.42;;;5.57;100.00
46241;BME280;31961;52.416;-0.732;2023-02-27T12:17:47;102406.14;;;5.97;100.00
46241;BME280;31961;52.416;-0.732;2023-02-27T12:20:27;102408.73;;;5.86;100.00
46241;BME280;31961;52.416;-0.732;2023-02-27T12:22:55;102406.97;;;5.37;100.00
46241;BME280;31961;52.416;-0.732;2023-02-27T12:25:41;102403.52;;;6.54;100.00
46241;BME280;31961;52.416;-0.732;2023-02-27T12:28:21;102402.99;;;5.25;100.00
46241;BME280;31961;52.416;-0.732;2023-02-27T12:30:59;102396.96;;;6.13;100.00
46241;BME280;31961;52.416;-0.732;2023-02-27T12:33:37;102397.81;;;5.63;100.00
46241;BME280;31961;52.416;-0.732;2023-02-27T12:36:10;102391.98;;;6.09;100.00
46241;BME280;31961;52.416;-0.732;2023-02-27T12:38:38;102396.40;;;4.98;100.00
46241;BME280;31961;52.416;-0.732;2023-02-27T12:41:17;102389.84;;;5.38;100.00
46241;BME280;31961;52.416;-0.732;2023-02-27T12:43:58;102389.15;;;6.54;100.00
46241;BME280;31961;52.416;-0.732;2023-02-27T12:46:34;102383.52;;;5.73;100.00
46241;BME280;31961;52.416;-0.732;2023-02-27T12:49:17;102380.65;;;6.74;100.00
46241;BME280;31961;52.416;-0.732;2023-02-27T12:51:55;102383.66;;;6.91;100.00
46241;BME280;31961;52.416;-0.732;2023-02-27T12:54:35;102384.84;;;6.47;100.00
46241;BME280;31961;52.416;-0.732;2023-02-27T12:57:19;102383.06;;;5.21;100.00
46241;BME280;31961;52.416;-0.732;2023-02-27T13:00:01;102380.66;;;5.13;100.00
46241;BME280;31961;52.416;-0.732;2023-02-27T13:02:55;102377.95;;;5.86;100.00